createdAt,value
2022-09-07T00:00:40.334Z,7.70
2022-09-07T00:03:07.092Z,7.10
2022-09-07T00:05:34.286Z,7.55
2022-09-07T00:08:00.971Z,6.63
2022-09-07T00:10:27.862Z,7.13
2022-09-07T00:12:54.481Z,7.10
2022-09-07T00:15:21.009Z,7.32
2022-09-07T00:17:47.550Z,8.02
2022-09-07T00:20:15.091Z,7.97
2022-09-07T00:22:41.675Z,7.78
2022-09-07T00:25:08.657Z,7.57
2022-09-07T00:27:35.195Z,7.95
2022-09-07T00:30:01.738Z,7.80
2022-09-07T00:32:28.310Z,8.13
2022-09-07T00:34:54.861Z,8.05
2022-09-07T00:37:21.447Z,8.70
2022-09-07T00:39:48.309Z,8.38
2022-09-07T00:42:16.451Z,8.43
2022-09-07T00:44:42.920Z,8.70
2022-09-07T00:47:35.807Z,8.23
2022-09-07T00:50:11.421Z,8.10
2022-09-07T00:52:40.989Z,8.18
2022-09-07T00:55:12.212Z,9.00
2022-09-07T00:57:43.302Z,8.60
2022-09-07T01:00:10.349Z,8.40
2022-09-07T01:02:37.267Z,9.50
2022-09-07T01:05:27.617Z,8.73
2022-09-07T01:07:56.308Z,9.25
2022-09-07T01:10:26.440Z,8.40
2022-09-07T01:12:53.127Z,10.38
2022-09-07T01:15:21.963Z,9.60
2022-09-07T01:18:00.883Z,10.35
2022-09-07T01:20:51.542Z,10.55
2022-09-07T01:23:17.990Z,9.85
2022-09-07T01:25:53.786Z,9.40
2022-09-07T01:28:26.599Z,8.05
2022-09-07T01:31:27.836Z,9.25
2022-09-07T01:34:21.299Z,8.25
2022-09-07T01:37:05.285Z,7.80
2022-09-07T01:39:42.311Z,10.43
2022-09-07T01:42:13.633Z,9.15
2022-09-07T01:44:47.088Z,9.00
2022-09-07T01:47:20.646Z,8.68
2022-09-07T01:50:01.983Z,9.43
2022-09-07T01:52:38.494Z,8.73
2022-09-07T01:55:14.860Z,10.43
2022-09-07T01:57:47.981Z,8.95
2022-09-07T02:00:19.877Z,8.10
2022-09-07T02:02:59.488Z,9.27
2022-09-07T02:05:39.886Z,9.02
2022-09-07T02:08:15.031Z,10.70
2022-09-07T02:10:50.437Z,9.15
2022-09-07T02:13:36.067Z,9.25
2022-09-07T02:16:10.982Z,8.73
2022-09-07T02:18:44.052Z,8.88
2022-09-07T02:21:11.209Z,10.52
2022-09-07T02:23:49.831Z,7.72
2022-09-07T02:26:22.633Z,9.00
2022-09-07T02:28:49.689Z,7.85
2022-09-07T02:31:16.480Z,9.05
2022-09-07T02:33:43.406Z,8.20
2022-09-07T02:36:13.555Z,9.48
2022-09-07T02:38:40.121Z,8.05
2022-09-07T02:41:30.965Z,8.60
2022-09-07T02:43:58.184Z,9.30
2022-09-07T02:46:46.263Z,9.82
2022-09-07T02:49:51.382Z,9.20
2022-09-07T02:52:17.846Z,8.55
2022-09-07T02:55:09.260Z,9.02
2022-09-07T02:58:00.940Z,8.38
2022-09-07T03:00:33.641Z,9.70
2022-09-07T03:03:00.214Z,9.68
2022-09-07T03:05:42.406Z,8.80
2022-09-07T03:08:38.271Z,9.10
2022-09-07T03:11:06.339Z,8.85
2022-09-07T03:13:33.547Z,9.90
2022-09-07T03:16:00.195Z,8.50
2022-09-07T03:18:27.999Z,9.18
2022-09-07T03:20:55.346Z,9.98
2022-09-07T03:23:22.089Z,9.80
2022-09-07T03:25:49.189Z,9.45
2022-09-07T03:28:16.299Z,9.93
2022-09-07T03:30:44.440Z,9.27
2022-09-07T03:33:11.598Z,9.90
2022-09-07T03:35:38.254Z,9.57
2022-09-07T03:38:04.822Z,9.35
2022-09-07T03:40:31.416Z,10.15
2022-09-07T03:42:57.966Z,11.05
2022-09-07T03:45:24.607Z,9.90
2022-09-07T03:47:51.217Z,9.35
2022-09-07T03:50:17.954Z,9.50
2022-09-07T03:52:44.689Z,10.55
2022-09-07T03:55:11.332Z,11.10
2022-09-07T03:57:37.955Z,11.90
2022-09-07T04:00:05.633Z,10.90
2022-09-07T04:02:32.274Z,14.90
2022-09-07T04:04:58.878Z,12.70
2022-09-07T04:07:25.435Z,12.10
2022-09-07T04:09:51.963Z,15.25
2022-09-07T04:12:18.608Z,14.77
2022-09-07T04:14:46.159Z,13.30
2022-09-07T04:17:12.836Z,13.75
2022-09-07T04:19:39.438Z,14.77
2022-09-07T04:22:06.001Z,11.65
2022-09-07T04:24:32.532Z,12.25
2022-09-07T04:26:59.171Z,12.70
2022-09-07T04:29:25.832Z,13.30
2022-09-07T04:31:52.366Z,11.88
2022-09-07T04:34:18.901Z,12.07
2022-09-07T04:36:45.515Z,10.13
2022-09-07T04:39:12.299Z,12.05
2022-09-07T04:41:39.055Z,11.80
2022-09-07T04:44:05.643Z,11.98
2022-09-07T04:46:34.622Z,11.25
2022-09-07T04:49:04.282Z,11.27
2022-09-07T04:51:32.255Z,12.18
2022-09-07T04:54:01.031Z,12.55
2022-09-07T04:56:28.108Z,10.88
2022-09-07T04:58:54.662Z,12.20
2022-09-07T05:01:23.396Z,12.70
2022-09-07T05:03:50.895Z,11.63
2022-09-07T05:06:21.845Z,11.88
2022-09-07T05:08:50.883Z,13.20
2022-09-07T05:11:18.710Z,11.23
2022-09-07T05:13:45.698Z,10.35
2022-09-07T05:16:16.969Z,11.35
2022-09-07T05:18:43.527Z,10.80
2022-09-07T05:21:12.715Z,13.68
2022-09-07T05:23:39.540Z,14.95
2022-09-07T05:26:06.918Z,12.52
2022-09-07T05:28:34.534Z,13.25
2022-09-07T05:31:21.425Z,12.38
2022-09-07T05:36:39.743Z,12.27
2022-09-07T05:39:07.295Z,11.95
2022-09-07T05:41:34.281Z,14.13
2022-09-07T05:46:47.761Z,12.63
2022-09-07T05:49:14.311Z,12.07
2022-09-07T05:51:41.228Z,13.38
2022-09-07T05:54:07.828Z,14.25
2022-09-07T05:56:36.158Z,15.23
2022-09-07T05:59:03.558Z,15.97
2022-09-07T06:01:30.372Z,13.45
2022-09-07T06:03:57.020Z,15.40
2022-09-07T06:06:23.916Z,13.32
2022-09-07T06:08:52.526Z,15.32
2022-09-07T06:11:22.670Z,14.67
2022-09-07T06:13:50.041Z,15.80
2022-09-07T06:16:18.575Z,13.77
2022-09-07T06:18:48.088Z,16.33
2022-09-07T06:23:43.571Z,15.00
2022-09-07T06:26:11.205Z,15.10
2022-09-07T06:28:40.516Z,16.33
2022-09-07T06:31:08.231Z,15.48
2022-09-07T06:33:36.052Z,15.55
2022-09-07T06:36:05.739Z,15.95
2022-09-07T06:38:34.401Z,15.20
2022-09-07T06:43:54.374Z,16.05
2022-09-07T06:49:08.786Z,15.85
2022-09-07T06:51:35.389Z,15.18
2022-09-07T06:56:48.811Z,13.98
2022-09-07T06:59:15.334Z,13.80
2022-09-07T07:01:41.985Z,14.05
2022-09-07T07:04:08.566Z,14.57
2022-09-07T07:06:36.577Z,15.15
2022-09-07T07:09:05.708Z,13.70
2022-09-07T07:11:32.408Z,13.15
2022-09-07T07:13:59.991Z,15.00
2022-09-07T07:16:26.594Z,13.25
2022-09-07T07:18:57.061Z,12.93
2022-09-07T07:21:24.093Z,12.93
2022-09-07T07:23:52.587Z,11.63
2022-09-07T07:26:21.407Z,11.67
2022-09-07T07:29:06.038Z,10.43
2022-09-07T07:31:33.714Z,9.70
2022-09-07T07:34:00.403Z,9.98
2022-09-07T07:36:28.194Z,8.70
2022-09-07T07:44:17.581Z,7.82
2022-09-07T07:46:50.773Z,7.10
2022-09-07T07:49:17.661Z,6.72
2022-09-07T07:54:34.105Z,7.13
2022-09-07T07:57:00.605Z,6.18
2022-09-07T07:59:27.168Z,6.78
2022-09-07T08:01:54.011Z,6.47
2022-09-07T08:04:20.622Z,6.97
2022-09-07T08:06:47.140Z,6.03
2022-09-07T08:09:13.687Z,5.43
2022-09-07T08:11:40.554Z,6.20
2022-09-07T08:14:08.929Z,5.82
2022-09-07T08:16:36.383Z,5.40
2022-09-07T08:19:03.478Z,5.10
2022-09-07T08:21:30.082Z,4.75
2022-09-07T08:23:56.632Z,4.43
2022-09-07T08:26:23.197Z,4.22
2022-09-07T08:28:49.760Z,4.38
2022-09-07T08:31:17.462Z,5.40
2022-09-07T08:33:44.692Z,4.72
2022-09-07T08:36:19.962Z,5.40
2022-09-07T08:38:47.501Z,5.10
2022-09-07T08:41:44.671Z,4.97
2022-09-07T08:44:56.294Z,4.72
2022-09-07T08:47:40.998Z,4.88
2022-09-07T08:50:12.762Z,4.50
2022-09-07T08:52:51.948Z,4.47
2022-09-07T08:58:04.265Z,4.10
2022-09-07T09:00:31.501Z,4.00
2022-09-07T09:06:27.611Z,4.50
2022-09-07T09:09:13.485Z,2.90
2022-09-07T09:11:49.157Z,3.50
2022-09-07T09:14:18.734Z,3.33
2022-09-07T09:16:50.478Z,3.33
2022-09-07T09:19:39.595Z,2.85
2022-09-07T09:24:41.112Z,3.20
2022-09-07T09:27:09.743Z,3.40
2022-09-07T09:29:36.337Z,3.63
2022-09-07T09:32:33.231Z,2.60
2022-09-07T09:35:12.604Z,2.45
2022-09-07T09:37:41.249Z,2.33
2022-09-07T09:40:22.362Z,2.22
2022-09-07T09:42:59.631Z,2.30
2022-09-07T09:45:29.972Z,2.20
2022-09-07T09:47:58.278Z,2.53
2022-09-07T09:53:42.234Z,1.67
2022-09-07T09:56:09.438Z,1.80
2022-09-07T10:01:33.603Z,1.60
2022-09-07T10:04:34.869Z,1.80
2022-09-07T10:07:08.332Z,1.70
2022-09-07T10:09:41.224Z,1.60
2022-09-07T10:12:24.632Z,1.90
2022-09-07T10:14:51.547Z,1.52
2022-09-07T10:17:30.343Z,1.80
2022-09-07T10:20:01.651Z,1.85
2022-09-07T10:22:35.762Z,1.60
2022-09-07T10:25:04.913Z,1.50
2022-09-07T10:30:07.093Z,1.70
2022-09-07T10:33:02.530Z,1.80
2022-09-07T10:35:34.372Z,1.92
2022-09-07T10:38:13.194Z,1.70
2022-09-07T10:41:01.114Z,1.42
2022-09-07T10:43:36.612Z,1.65
2022-09-07T10:52:44.553Z,1.48
2022-09-07T10:55:20.907Z,1.58
2022-09-07T10:58:08.419Z,1.48
2022-09-07T11:01:24.303Z,1.77
2022-09-07T11:04:04.181Z,1.80
2022-09-07T11:06:30.724Z,1.73
2022-09-07T11:09:20.035Z,1.63
2022-09-07T11:12:03.569Z,1.77
2022-09-07T11:14:36.822Z,2.05
2022-09-07T11:17:11.692Z,2.13
2022-09-07T11:19:52.147Z,2.13
2022-09-07T11:22:41.792Z,1.88
2022-09-07T11:25:31.606Z,1.77
2022-09-07T11:28:09.607Z,1.33
2022-09-07T11:31:00.212Z,1.77
2022-09-07T11:34:23.914Z,1.80
2022-09-07T11:36:39.088Z,1.80
2022-09-07T11:39:17.061Z,1.50
2022-09-07T11:42:01.238Z,1.30
2022-09-07T11:44:47.881Z,1.75
2022-09-07T11:47:42.408Z,1.65
2022-09-07T11:50:17.692Z,1.88
2022-09-07T11:52:55.886Z,1.77
2022-09-07T11:55:29.520Z,1.57
2022-09-07T11:58:35.426Z,1.38
2022-09-07T12:01:04.860Z,1.60
2022-09-07T12:03:43.766Z,1.30
2022-09-07T12:08:55.406Z,1.60
2022-09-07T12:11:31.118Z,1.42
2022-09-07T12:14:48.992Z,1.45
2022-09-07T12:17:21.835Z,1.20
2022-09-07T12:20:10.151Z,1.40
2022-09-07T12:22:37.886Z,1.55
2022-09-07T12:25:09.629Z,1.33
2022-09-07T12:27:37.922Z,1.30
2022-09-07T12:30:04.481Z,1.10
2022-09-07T12:32:54.342Z,1.10
2022-09-07T12:35:28.150Z,1.38
2022-09-07T12:38:02.400Z,1.40
2022-09-07T12:40:29.158Z,1.10
2022-09-07T12:43:14.106Z,1.40
2022-09-07T12:45:40.614Z,1.00
2022-09-07T12:48:29.517Z,1.27
2022-09-07T12:51:16.091Z,1.05
2022-09-07T12:53:48.486Z,1.10
2022-09-07T12:57:29.142Z,1.13
2022-09-07T12:59:42.303Z,1.17
2022-09-07T13:02:23.883Z,1.40
2022-09-07T13:05:18.125Z,1.73
2022-09-07T13:08:08.702Z,1.10
2022-09-07T13:10:43.167Z,1.63
2022-09-07T13:13:15.769Z,1.00
2022-09-07T13:15:49.868Z,1.17
2022-09-07T13:18:28.646Z,1.70
2022-09-07T13:23:35.794Z,1.30
2022-09-07T13:28:37.089Z,1.30
2022-09-07T13:31:16.882Z,1.15
2022-09-07T13:33:47.656Z,1.10
2022-09-07T13:36:47.507Z,1.38
2022-09-07T13:39:18.909Z,1.60
2022-09-07T13:41:52.351Z,1.85
2022-09-07T13:44:26.730Z,1.40
2022-09-07T13:46:58.868Z,1.23
2022-09-07T13:49:44.176Z,1.40
2022-09-07T13:52:19.274Z,1.23
2022-09-07T13:55:08.656Z,1.38
2022-09-07T13:58:11.259Z,1.55
2022-09-07T14:00:50.233Z,1.10
2022-09-07T14:05:43.706Z,1.13
2022-09-07T14:08:29.754Z,3.00
2022-09-07T14:10:56.293Z,1.60
2022-09-07T14:13:22.850Z,1.90
2022-09-07T14:15:50.967Z,1.35
2022-09-07T14:18:31.292Z,1.07
2022-09-07T14:20:58.764Z,1.58
2022-09-07T14:23:30.046Z,1.30
2022-09-07T14:26:26.393Z,1.42
2022-09-07T14:28:54.871Z,1.20
2022-09-07T14:31:23.962Z,1.42
2022-09-07T14:34:00.523Z,1.60
2022-09-07T14:36:45.359Z,1.35
2022-09-07T14:39:16.084Z,1.40
2022-09-07T14:41:43.549Z,1.40
2022-09-07T14:44:29.005Z,1.17
2022-09-07T14:46:57.431Z,1.42
2022-09-07T14:49:24.786Z,1.20
2022-09-07T14:51:52.950Z,1.10
2022-09-07T14:54:31.874Z,1.10
2022-09-07T14:57:11.633Z,1.45
2022-09-07T14:59:44.533Z,1.15
2022-09-07T15:02:18.167Z,1.33
2022-09-07T15:04:46.608Z,1.33
2022-09-07T15:07:48.754Z,1.02
2022-09-07T15:10:21.299Z,1.20
2022-09-07T15:12:49.513Z,1.17
2022-09-07T15:15:18.732Z,1.47
2022-09-07T15:17:45.896Z,1.20
2022-09-07T15:20:35.117Z,1.20
2022-09-07T15:23:08.810Z,1.25
2022-09-07T15:25:35.698Z,1.15
2022-09-07T15:28:02.501Z,1.45
2022-09-07T15:30:29.069Z,1.42
2022-09-07T15:32:57.373Z,1.13
2022-09-07T15:35:24.540Z,1.20
2022-09-07T15:38:59.424Z,1.05
2022-09-07T15:41:04.137Z,1.40
2022-09-07T15:43:31.479Z,1.20
2022-09-07T15:45:58.228Z,1.25
2022-09-07T15:48:25.629Z,1.17
2022-09-07T15:51:01.480Z,1.80
2022-09-07T15:56:20.308Z,1.70
2022-09-07T15:58:51.801Z,1.35
2022-09-07T16:04:05.069Z,1.27
2022-09-07T16:06:31.689Z,1.30
2022-09-07T16:08:58.272Z,1.20
2022-09-07T16:11:28.119Z,1.10
2022-09-07T16:13:57.371Z,1.15
2022-09-07T16:17:25.751Z,1.08
2022-09-07T16:19:15.226Z,1.38
2022-09-07T16:21:42.866Z,1.35
2022-09-07T16:24:09.858Z,1.13
2022-09-07T16:26:36.418Z,1.50
2022-09-07T16:29:03.495Z,1.08
2022-09-07T16:31:31.412Z,1.40
2022-09-07T16:33:58.138Z,1.15
2022-09-07T16:36:24.710Z,1.02
2022-09-07T16:39:01.336Z,1.30
2022-09-07T16:41:31.998Z,1.88
2022-09-07T16:43:59.109Z,1.23
2022-09-07T16:46:28.398Z,1.25
2022-09-07T16:48:55.294Z,1.50
2022-09-07T16:51:23.212Z,1.20
2022-09-07T16:53:51.693Z,1.50
2022-09-07T16:56:20.418Z,1.58
2022-09-07T16:58:51.067Z,1.60
2022-09-07T17:01:20.613Z,1.50
2022-09-07T17:03:51.199Z,1.35
2022-09-07T17:06:19.428Z,1.30
2022-09-07T17:08:47.121Z,1.47
2022-09-07T17:11:17.187Z,1.30
2022-09-07T17:13:44.768Z,1.00
2022-09-07T17:16:17.062Z,1.10
2022-09-07T17:21:37.027Z,1.42
2022-09-07T17:24:05.380Z,1.60
2022-09-07T17:26:32.631Z,1.50
2022-09-07T17:29:00.920Z,1.50
2022-09-07T17:34:20.127Z,1.30
2022-09-07T17:36:47.116Z,1.75
2022-09-07T17:39:16.021Z,1.30
2022-09-07T17:41:44.356Z,1.27
2022-09-07T17:44:11.329Z,1.60
2022-09-07T17:46:37.829Z,1.60
2022-09-07T17:49:07.016Z,1.30
2022-09-07T17:54:09.546Z,1.50
2022-09-07T17:56:37.093Z,1.38
2022-09-07T18:01:50.586Z,1.55
2022-09-07T18:04:17.270Z,1.67
2022-09-07T18:06:43.879Z,1.40
2022-09-07T18:09:11.631Z,1.70
2022-09-07T18:11:46.693Z,1.48
2022-09-07T18:14:14.696Z,2.45
2022-09-07T18:16:41.745Z,3.30
2022-09-07T18:19:08.728Z,3.22
2022-09-07T18:21:37.254Z,2.17
2022-09-07T18:24:11.784Z,2.50
2022-09-07T18:26:39.987Z,1.95
2022-09-07T18:29:18.662Z,2.20
2022-09-07T18:31:54.224Z,2.60
2022-09-07T18:34:20.948Z,3.83
2022-09-07T18:36:47.560Z,3.47
2022-09-07T18:39:14.105Z,3.80
2022-09-07T18:41:40.968Z,2.83
2022-09-07T18:45:27.085Z,2.25
2022-09-07T18:46:54.534Z,2.80
2022-09-07T18:49:21.102Z,2.30
2022-09-07T18:54:34.207Z,2.40
2022-09-07T18:57:00.716Z,4.15
2022-09-07T18:59:27.242Z,1.90
2022-09-07T19:01:54.097Z,1.95
2022-09-07T19:04:21.155Z,2.20
2022-09-07T19:06:47.988Z,1.75
2022-09-07T19:09:14.579Z,2.53
2022-09-07T19:11:42.443Z,1.70
2022-09-07T19:14:08.936Z,1.85
2022-09-07T19:16:36.363Z,2.47
2022-09-07T19:19:06.181Z,1.60
2022-09-07T19:21:35.759Z,1.60
2022-09-07T19:24:04.826Z,2.25
2022-09-07T19:26:34.364Z,2.00
2022-09-07T19:29:02.344Z,2.10
2022-09-07T19:31:30.948Z,1.70
2022-09-07T19:34:02.440Z,1.73
2022-09-07T19:36:33.183Z,1.70
2022-09-07T19:39:00.755Z,1.30
2022-09-07T19:41:28.279Z,1.50
2022-09-07T19:43:54.799Z,1.42
2022-09-07T19:46:24.965Z,1.30
2022-09-07T19:48:52.100Z,1.38
2022-09-07T19:51:19.919Z,1.45
2022-09-07T19:53:47.294Z,1.40
2022-09-07T19:56:16.972Z,1.50
2022-09-07T19:58:45.199Z,1.45
2022-09-07T20:01:14.254Z,1.45
2022-09-07T20:03:41.950Z,1.42
2022-09-07T20:06:11.631Z,1.63
2022-09-07T20:08:39.447Z,1.58
2022-09-07T20:11:08.547Z,1.50
2022-09-07T20:13:37.058Z,1.50
2022-09-07T20:16:13.279Z,1.80
2022-09-07T20:18:40.174Z,2.35
2022-09-07T20:21:09.414Z,1.58
2022-09-07T20:26:05.986Z,1.40
2022-09-07T20:28:34.432Z,1.80
2022-09-07T20:31:08.178Z,1.93
2022-09-07T20:33:35.109Z,1.50
2022-09-07T20:36:06.314Z,1.63
2022-09-07T20:38:42.118Z,1.58
2022-09-07T20:41:14.667Z,1.50
2022-09-07T20:43:41.267Z,1.50
2022-09-07T20:46:09.668Z,1.70
2022-09-07T20:48:37.538Z,1.50
2022-09-07T20:51:08.132Z,1.73
2022-09-07T20:53:35.187Z,1.40
2022-09-07T20:56:07.728Z,1.70
2022-09-07T20:58:35.393Z,1.50
2022-09-07T21:01:02.875Z,1.58
2022-09-07T21:03:30.036Z,1.63
2022-09-07T21:06:01.703Z,1.70
2022-09-07T21:08:28.552Z,1.65
2022-09-07T21:10:55.265Z,1.50
2022-09-07T21:13:21.799Z,1.83
2022-09-07T21:15:48.327Z,2.15
2022-09-07T21:18:18.712Z,1.77
2022-09-07T21:21:18.469Z,2.17
2022-09-07T21:23:43.068Z,2.40
2022-09-07T21:26:09.572Z,1.85
2022-09-07T21:28:36.054Z,2.58
2022-09-07T21:31:08.080Z,2.33
2022-09-07T21:33:36.033Z,2.67
2022-09-07T21:36:07.878Z,2.25
2022-09-07T21:38:35.700Z,2.40
2022-09-07T21:41:24.713Z,2.80
2022-09-07T21:43:58.456Z,2.35
2022-09-07T21:46:26.056Z,2.40
2022-09-07T21:48:53.076Z,2.60
2022-09-07T21:51:19.584Z,2.13
2022-09-07T21:53:51.583Z,2.05
2022-09-07T21:56:18.383Z,1.90
2022-09-07T21:58:44.959Z,1.70
2022-09-07T22:01:17.224Z,1.98
2022-09-07T22:03:45.568Z,2.20
2022-09-07T22:06:12.419Z,2.03
2022-09-07T22:08:40.450Z,2.78
2022-09-07T22:11:10.575Z,3.00
2022-09-07T22:13:37.623Z,2.75
2022-09-07T22:16:05.354Z,2.28
2022-09-07T22:18:32.271Z,2.40
2022-09-07T22:21:10.743Z,2.15
2022-09-07T22:23:40.133Z,2.20
2022-09-07T22:28:34.500Z,1.90
2022-09-07T22:31:11.070Z,2.00
2022-09-07T22:33:38.202Z,2.00
2022-09-07T22:36:11.269Z,2.10
2022-09-07T22:38:38.285Z,1.80
2022-09-07T22:41:16.114Z,1.88
2022-09-07T22:43:43.496Z,1.85
2022-09-07T22:46:11.581Z,2.13
2022-09-07T22:48:39.344Z,2.38
2022-09-07T22:51:06.450Z,2.10
2022-09-07T22:53:35.547Z,2.15
2022-09-07T22:56:26.386Z,2.13
2022-09-07T22:58:56.338Z,2.53
2022-09-07T23:01:23.646Z,2.38
2022-09-07T23:03:51.594Z,2.13
2022-09-07T23:06:26.183Z,2.20
2022-09-07T23:08:54.435Z,1.90
2022-09-07T23:11:21.974Z,2.00
2022-09-07T23:13:53.115Z,2.47
2022-09-07T23:16:20.579Z,2.25
2022-09-07T23:18:48.310Z,2.00
2022-09-07T23:21:15.136Z,2.22
2022-09-07T23:23:41.663Z,2.67
2022-09-07T23:26:08.784Z,2.20
2022-09-07T23:28:35.358Z,2.42
2022-09-07T23:31:02.112Z,2.25
2022-09-07T23:33:28.675Z,2.00
2022-09-07T23:36:01.032Z,1.98
2022-09-07T23:38:28.298Z,2.28
2022-09-07T23:40:55.703Z,2.38
2022-09-07T23:43:23.335Z,2.15
2022-09-07T23:45:50.336Z,2.33
2022-09-07T23:48:16.844Z,1.92
2022-09-07T23:50:44.770Z,2.17
2022-09-07T23:53:11.952Z,2.13
2022-09-07T23:55:38.948Z,2.20
2022-09-07T23:58:05.869Z,2.17
